createdAt,value
2018-04-16T00:02:24.638Z,86.23
2018-04-16T00:04:53.051Z,86.26
2018-04-16T00:07:22.221Z,85.58
2018-04-16T00:09:50.727Z,85.85
2018-04-16T00:12:19.112Z,86.30
2018-04-16T00:14:47.498Z,86.66
2018-04-16T00:17:16.642Z,86.55
2018-04-16T00:19:45.030Z,86.71
2018-04-16T00:22:13.418Z,86.46
2018-04-16T00:24:41.918Z,86.53
2018-04-16T00:27:10.322Z,86.68
2018-04-16T00:29:38.706Z,86.80
2018-04-16T00:32:12.528Z,87.04
2018-04-16T00:34:47.154Z,87.42
2018-04-16T00:37:22.622Z,87.92
2018-04-16T00:39:56.450Z,87.92
2018-04-16T00:42:30.410Z,88.05
2018-04-16T00:45:05.067Z,88.23
2018-04-16T00:47:38.930Z,88.39
2018-04-16T00:50:12.732Z,88.35
2018-04-16T00:52:46.569Z,88.72
2018-04-16T00:55:21.129Z,88.62
2018-04-16T00:57:54.860Z,89.30
2018-04-16T01:00:28.700Z,89.10
2018-04-16T01:03:03.365Z,89.20
2018-04-16T01:05:37.362Z,89.89
2018-04-16T01:08:11.185Z,89.84
2018-04-16T01:10:45.102Z,90.43
2018-04-16T01:13:18.790Z,90.53
2018-04-16T01:15:52.585Z,90.99
2018-04-16T01:18:26.502Z,90.63
2018-04-16T01:21:00.467Z,90.76
2018-04-16T01:23:35.118Z,91.08
2018-04-16T01:26:09.073Z,91.40
2018-04-16T01:28:42.809Z,91.35
2018-04-16T01:31:17.429Z,91.47
2018-04-16T01:33:51.322Z,91.04
2018-04-16T01:36:25.050Z,91.08
2018-04-16T01:38:59.608Z,91.30
2018-04-16T01:41:33.323Z,91.39
2018-04-16T01:44:07.233Z,91.40
2018-04-16T01:46:40.932Z,91.50
2018-04-16T01:49:14.711Z,91.82
2018-04-16T01:51:49.205Z,91.66
2018-04-16T01:54:23.102Z,91.79
2018-04-16T01:56:57.018Z,91.90
2018-04-16T01:59:30.783Z,91.92
2018-04-16T02:02:04.503Z,91.82
2018-04-16T02:07:41.029Z,91.73
2018-04-16T02:10:15.634Z,91.77
2018-04-16T02:12:49.536Z,91.89
2018-04-16T02:18:28.929Z,92.15
2018-04-16T02:21:02.650Z,92.36
2018-04-16T02:23:36.351Z,92.14
2018-04-16T02:26:10.180Z,91.91
2018-04-16T02:28:43.890Z,91.87
2018-04-16T02:31:17.691Z,92.07
2018-04-16T02:33:51.589Z,92.01
2018-04-16T02:36:25.401Z,92.01
2018-04-16T02:38:59.290Z,91.98
2018-04-16T02:44:34.915Z,92.07
2018-04-16T02:47:08.841Z,92.03
2018-04-16T02:49:42.615Z,92.24
2018-04-16T02:52:17.267Z,92.23
2018-04-16T02:54:50.993Z,92.71
2018-04-16T02:57:24.886Z,92.92
2018-04-16T02:59:58.797Z,92.66
2018-04-16T03:02:32.513Z,92.53
2018-04-16T03:05:06.232Z,92.73
2018-04-16T03:07:40.019Z,92.73
2018-04-16T03:10:13.838Z,92.81
2018-04-16T03:12:48.374Z,93.26
2018-04-16T03:15:22.192Z,92.81
2018-04-16T03:17:56.057Z,92.74
2018-04-16T03:20:29.829Z,92.74
2018-04-16T03:23:04.340Z,92.83
2018-04-16T03:25:38.289Z,93.07
2018-04-16T03:28:12.238Z,92.83
2018-04-16T03:30:46.038Z,92.83
2018-04-16T03:36:20.536Z,92.44
2018-04-16T03:38:54.221Z,92.14
2018-04-16T03:41:27.971Z,92.34
2018-04-16T03:44:01.676Z,92.32
2018-04-16T03:46:35.365Z,91.94
2018-04-16T03:49:09.269Z,91.71
2018-04-16T03:54:37.186Z,91.04
2018-04-16T03:57:05.567Z,91.17
2018-04-16T03:59:33.946Z,91.27
2018-04-16T04:02:02.356Z,91.54
2018-04-16T04:04:30.744Z,91.49
2018-04-16T04:06:59.158Z,91.90
2018-04-16T04:09:27.546Z,91.97
2018-04-16T04:11:55.943Z,91.83
2018-04-16T04:14:24.357Z,91.76
2018-04-16T04:16:52.745Z,91.90
2018-04-16T04:19:21.886Z,91.88
2018-04-16T04:21:50.276Z,91.50
2018-04-16T04:24:37.206Z,91.73
2018-04-16T04:30:30.853Z,91.77
2018-04-16T04:33:00.073Z,91.42
2018-04-16T04:35:28.463Z,91.16
2018-04-16T04:37:56.862Z,91.09
2018-04-16T04:40:25.253Z,91.38
2018-04-16T04:42:54.397Z,90.97
2018-04-16T04:45:22.786Z,91.03
2018-04-16T04:47:51.171Z,90.79
2018-04-16T04:50:19.565Z,90.98
2018-04-16T04:52:47.958Z,91.11
2018-04-16T04:55:16.357Z,91.07
2018-04-16T04:57:44.829Z,91.03
2018-04-16T05:00:13.224Z,91.28
2018-04-16T05:02:41.623Z,91.42
2018-04-16T05:05:10.045Z,91.31
2018-04-16T05:07:38.493Z,90.83
2018-04-16T05:10:08.493Z,91.24
2018-04-16T05:12:36.871Z,91.16
2018-04-16T05:15:05.266Z,91.08
2018-04-16T05:17:33.633Z,90.53
2018-04-16T05:20:02.041Z,90.94
2018-04-16T05:22:31.212Z,90.57
2018-04-16T05:24:59.618Z,88.92
2018-04-16T05:27:27.986Z,89.47
2018-04-16T05:29:56.349Z,89.02
2018-04-16T05:32:24.755Z,87.73
2018-04-16T05:34:53.141Z,88.69
2018-04-16T05:37:21.534Z,85.30
2018-04-16T05:39:50.675Z,88.09
2018-04-16T05:42:19.066Z,85.10
2018-04-16T05:44:47.526Z,81.23
2018-04-16T05:47:15.929Z,79.10
2018-04-16T05:49:44.331Z,81.90
2018-04-16T05:52:12.717Z,77.33
2018-04-16T05:54:41.115Z,77.45
2018-04-16T05:57:09.518Z,78.03
2018-04-16T05:59:37.993Z,75.36
2018-04-16T06:02:06.394Z,75.21
2018-04-16T06:04:35.542Z,74.50
2018-04-16T06:07:03.909Z,74.42
2018-04-16T06:09:32.294Z,74.76
2018-04-16T06:12:00.678Z,71.37
2018-04-16T06:14:29.085Z,72.80
2018-04-16T06:16:57.466Z,73.06
2018-04-16T06:19:25.894Z,72.50
2018-04-16T06:21:55.071Z,67.80
2018-04-16T06:24:23.437Z,67.45
2018-04-16T06:26:51.826Z,64.98
2018-04-16T06:29:20.223Z,64.08
2018-04-16T06:31:48.605Z,58.01
2018-04-16T06:34:16.978Z,59.12
2018-04-16T06:36:45.361Z,59.58
2018-04-16T06:39:13.813Z,59.51
2018-04-16T06:41:42.183Z,61.51
2018-04-16T06:44:10.557Z,63.10
2018-04-16T06:46:39.701Z,61.76
2018-04-16T06:49:08.073Z,63.47
2018-04-16T06:51:36.455Z,65.17
2018-04-16T06:54:04.833Z,63.43
2018-04-16T06:56:33.294Z,63.42
2018-04-16T06:59:02.455Z,65.87
2018-04-16T07:01:30.928Z,63.37
2018-04-16T07:03:59.335Z,64.30
2018-04-16T07:06:27.723Z,63.18
2018-04-16T07:08:56.105Z,63.63
2018-04-16T07:11:24.476Z,62.49
2018-04-16T07:13:52.879Z,62.29
2018-04-16T07:16:22.048Z,63.05
2018-04-16T07:18:50.451Z,64.80
2018-04-16T07:21:18.812Z,62.84
2018-04-16T07:23:47.198Z,57.80
2018-04-16T07:26:15.568Z,58.21
2018-04-16T07:28:43.968Z,54.96
2018-04-16T07:31:12.341Z,57.18
2018-04-16T07:33:40.807Z,55.28
2018-04-16T07:36:09.148Z,56.20
2018-04-16T07:38:38.292Z,56.80
2018-04-16T07:41:06.698Z,58.17
2018-04-16T07:43:35.085Z,61.75
2018-04-16T07:46:03.479Z,62.62
2018-04-16T07:48:31.890Z,63.90
2018-04-16T07:51:00.318Z,62.64
2018-04-16T07:53:28.886Z,63.92
2018-04-16T07:55:57.328Z,63.12
2018-04-16T07:58:26.493Z,61.58
2018-04-16T08:00:54.871Z,58.72
2018-04-16T08:03:23.285Z,58.74
2018-04-16T08:05:51.685Z,58.15
2018-04-16T08:08:20.827Z,54.90
2018-04-16T08:10:49.206Z,51.97
2018-04-16T08:13:17.597Z,49.13
2018-04-16T08:15:45.973Z,50.90
2018-04-16T08:18:14.341Z,47.56
2018-04-16T08:20:42.753Z,51.32
2018-04-16T08:23:11.161Z,50.92
2018-04-16T08:25:39.549Z,51.03
2018-04-16T08:28:07.976Z,52.80
2018-04-16T08:30:36.427Z,54.82
2018-04-16T08:33:04.814Z,54.48
2018-04-16T08:35:33.195Z,53.60
2018-04-16T08:38:01.627Z,52.68
2018-04-16T08:40:30.113Z,52.45
2018-04-16T08:42:58.515Z,53.35
2018-04-16T08:45:26.941Z,51.50
2018-04-16T08:47:56.167Z,49.46
2018-04-16T08:50:24.544Z,48.64
2018-04-16T08:52:52.927Z,49.24
2018-04-16T08:55:21.290Z,46.50
2018-04-16T08:57:50.429Z,44.13
2018-04-16T09:00:18.829Z,43.83
2018-04-16T09:02:47.213Z,44.90
2018-04-16T09:05:16.491Z,44.85
2018-04-16T09:07:44.936Z,48.51
2018-04-16T09:10:13.329Z,45.85
2018-04-16T09:12:42.478Z,46.56
2018-04-16T09:15:10.855Z,44.25
2018-04-16T09:17:39.245Z,42.14
2018-04-16T09:20:08.164Z,44.35
2018-04-16T09:22:36.538Z,46.04
2018-04-16T09:25:05.034Z,48.06
2018-04-16T09:27:33.418Z,49.17
2018-04-16T09:30:01.853Z,51.53
2018-04-16T09:32:30.237Z,52.05
2018-04-16T09:34:58.666Z,53.82
2018-04-16T09:37:27.178Z,54.10
2018-04-16T09:39:56.340Z,53.69
2018-04-16T09:42:24.722Z,51.35
2018-04-16T09:44:53.098Z,50.44
2018-04-16T09:47:21.938Z,48.02
2018-04-16T09:49:51.081Z,47.06
2018-04-16T09:52:19.548Z,44.64
2018-04-16T09:54:47.940Z,46.17
2018-04-16T09:57:16.501Z,48.56
2018-04-16T09:59:45.643Z,49.07
2018-04-16T10:02:19.446Z,51.42
2018-04-16T10:04:47.911Z,49.82
2018-04-16T10:07:16.305Z,50.89
2018-04-16T10:09:44.687Z,54.85
2018-04-16T10:12:13.111Z,52.96
2018-04-16T10:14:41.557Z,52.33
2018-04-16T10:17:09.945Z,51.98
2018-04-16T10:19:38.353Z,50.84
2018-04-16T10:22:06.758Z,47.17
2018-04-16T10:24:35.160Z,48.44
2018-04-16T10:27:04.306Z,47.15
2018-04-16T10:29:32.689Z,44.47
2018-04-16T10:32:01.081Z,41.98
2018-04-16T10:34:29.506Z,43.46
2018-04-16T10:36:58.658Z,44.77
2018-04-16T10:39:27.066Z,40.45
2018-04-16T10:41:55.454Z,38.19
2018-04-16T10:44:23.835Z,38.38
2018-04-16T10:46:52.226Z,38.75
2018-04-16T10:49:20.614Z,40.24
2018-04-16T10:51:48.990Z,39.76
2018-04-16T10:54:17.497Z,40.41
2018-04-16T10:56:46.658Z,37.53
2018-04-16T10:59:15.043Z,39.25
2018-04-16T11:01:43.419Z,41.30
2018-04-16T11:04:11.801Z,40.88
2018-04-16T11:06:40.193Z,39.98
2018-04-16T11:09:08.573Z,38.76
2018-04-16T11:11:37.770Z,41.09
2018-04-16T11:14:06.145Z,40.41
2018-04-16T11:16:34.528Z,41.20
2018-04-16T11:19:03.023Z,43.41
2018-04-16T11:21:31.402Z,42.73
2018-04-16T11:23:59.794Z,43.78
2018-04-16T11:26:28.230Z,41.82
2018-04-16T11:28:56.580Z,41.47
2018-04-16T11:31:24.975Z,40.64
2018-04-16T11:33:54.203Z,40.09
2018-04-16T11:36:22.595Z,39.90
2018-04-16T11:38:50.999Z,42.15
2018-04-16T11:41:19.393Z,44.32
2018-04-16T11:43:47.777Z,46.00
2018-04-16T11:46:16.204Z,46.71
2018-04-16T11:48:45.344Z,46.22
2018-04-16T11:51:13.737Z,45.77
2018-04-16T11:53:42.156Z,44.42
2018-04-16T11:56:11.362Z,45.88
2018-04-16T11:58:40.517Z,43.72
2018-04-16T12:01:08.893Z,42.02
2018-04-16T12:03:37.308Z,42.85
2018-04-16T12:06:05.690Z,40.83
2018-04-16T12:08:34.094Z,38.46
2018-04-16T12:11:02.538Z,37.77
2018-04-16T12:13:31.017Z,42.23
2018-04-16T12:15:59.427Z,40.67
2018-04-16T12:18:27.794Z,38.60
2018-04-16T12:20:56.218Z,39.14
2018-04-16T12:23:25.366Z,40.16
2018-04-16T12:25:53.755Z,38.99
2018-04-16T12:28:22.138Z,39.15
2018-04-16T12:30:50.518Z,39.55
2018-04-16T12:33:18.929Z,39.20
2018-04-16T12:35:47.327Z,43.26
2018-04-16T12:38:15.729Z,42.55
2018-04-16T12:40:44.880Z,43.08
2018-04-16T12:43:13.301Z,44.81
2018-04-16T12:45:42.535Z,43.03
2018-04-16T12:48:10.942Z,43.44
2018-04-16T12:50:39.322Z,43.99
2018-04-16T12:53:07.819Z,43.41
2018-04-16T12:55:36.224Z,44.28
2018-04-16T12:58:04.590Z,44.30
2018-04-16T13:00:33.012Z,44.85
2018-04-16T13:03:02.146Z,44.30
2018-04-16T13:05:30.529Z,43.95
2018-04-16T13:07:58.956Z,43.25
2018-04-16T13:10:27.365Z,43.80
2018-04-16T13:12:56.521Z,42.01
2018-04-16T13:15:24.930Z,41.33
2018-04-16T13:17:53.326Z,39.37
2018-04-16T13:20:21.730Z,40.38
2018-04-16T13:22:50.140Z,39.09
2018-04-16T13:25:18.534Z,40.15
2018-04-16T13:27:46.960Z,40.98
2018-04-16T13:30:16.090Z,44.10
2018-04-16T13:32:44.484Z,42.47
2018-04-16T13:35:12.974Z,41.78
2018-04-16T13:37:41.359Z,44.18
2018-04-16T13:40:09.782Z,44.36
2018-04-16T13:42:38.157Z,43.63
2018-04-16T13:45:06.591Z,43.99
2018-04-16T13:47:34.970Z,45.02
2018-04-16T13:50:03.474Z,45.23
2018-04-16T13:52:31.856Z,44.09
2018-04-16T13:55:00.239Z,44.98
2018-04-16T13:57:29.578Z,44.50
2018-04-16T13:59:57.982Z,43.38
2018-04-16T14:02:26.397Z,42.27
2018-04-16T14:04:54.799Z,40.15
2018-04-16T14:07:23.200Z,41.99
2018-04-16T14:09:51.582Z,40.98
2018-04-16T14:12:19.983Z,42.52
2018-04-16T14:14:49.150Z,40.74
2018-04-16T14:17:17.570Z,40.31
2018-04-16T14:19:45.974Z,40.22
2018-04-16T14:22:15.160Z,39.92
2018-04-16T14:24:43.541Z,41.88
2018-04-16T14:27:11.941Z,42.08
2018-04-16T14:29:41.097Z,40.28
2018-04-16T14:32:09.482Z,39.40
2018-04-16T14:34:37.879Z,37.33
2018-04-16T14:37:06.279Z,37.17
2018-04-16T14:39:34.688Z,37.46
2018-04-16T14:42:03.861Z,36.90
2018-04-16T14:44:32.297Z,33.78
2018-04-16T14:47:00.667Z,34.55
2018-04-16T14:49:29.075Z,33.77
2018-04-16T14:51:57.473Z,34.45
2018-04-16T14:54:25.878Z,35.23
2018-04-16T14:56:54.260Z,37.43
2018-04-16T14:59:22.819Z,37.08
2018-04-16T15:01:51.338Z,33.67
2018-04-16T15:04:19.725Z,32.83
2018-04-16T15:06:48.139Z,34.19
2018-04-16T15:09:16.541Z,34.86
2018-04-16T15:11:44.973Z,34.40
2018-04-16T15:14:13.607Z,33.04
2018-04-16T15:16:42.018Z,32.74
2018-04-16T15:19:10.448Z,35.96
2018-04-16T15:21:39.626Z,33.58
2018-04-16T15:24:08.026Z,34.72
2018-04-16T15:26:36.398Z,33.84
2018-04-16T15:29:04.791Z,36.40
2018-04-16T15:31:33.957Z,37.45
2018-04-16T15:34:02.409Z,37.21
2018-04-16T15:36:30.783Z,37.09
2018-04-16T15:38:59.162Z,36.65
2018-04-16T15:41:28.307Z,35.37
2018-04-16T15:43:56.777Z,35.61
2018-04-16T15:46:25.155Z,35.63
2018-04-16T15:48:53.531Z,35.13
2018-04-16T15:51:21.920Z,33.99
2018-04-16T15:53:50.354Z,33.00
2018-04-16T15:56:18.764Z,34.91
2018-04-16T15:58:47.158Z,35.51
2018-04-16T16:01:15.544Z,37.62
2018-04-16T16:03:43.931Z,38.41
2018-04-16T16:06:12.481Z,39.88
2018-04-16T16:08:41.643Z,37.75
2018-04-16T16:11:10.102Z,39.49
2018-04-16T16:13:38.498Z,37.64
2018-04-16T16:16:06.906Z,39.03
2018-04-16T16:18:35.298Z,38.21
2018-04-16T16:21:03.687Z,40.10
2018-04-16T16:23:32.078Z,39.84
2018-04-16T16:26:01.216Z,40.62
2018-04-16T16:28:29.653Z,39.93
2018-04-16T16:30:58.042Z,41.29
2018-04-16T16:33:26.442Z,43.33
2018-04-16T16:35:55.619Z,40.04
2018-04-16T16:38:24.001Z,41.35
2018-04-16T16:40:52.461Z,43.04
2018-04-16T16:43:20.821Z,42.70
2018-04-16T16:45:49.346Z,43.04
2018-04-16T16:48:17.730Z,43.37
2018-04-16T16:50:46.142Z,44.21
2018-04-16T16:53:15.303Z,44.50
2018-04-16T16:55:43.703Z,45.76
2018-04-16T16:58:12.063Z,45.45
2018-04-16T17:00:40.502Z,44.71
2018-04-16T17:03:09.722Z,45.35
2018-04-16T17:05:38.124Z,47.58
2018-04-16T17:08:06.533Z,44.82
2018-04-16T17:10:34.923Z,45.00
2018-04-16T17:13:03.313Z,43.93
2018-04-16T17:15:31.725Z,45.45
2018-04-16T17:18:00.133Z,46.87
2018-04-16T17:20:28.531Z,45.22
2018-04-16T17:22:56.946Z,45.58
2018-04-16T17:25:25.376Z,45.54
2018-04-16T17:27:53.770Z,44.06
2018-04-16T17:30:22.159Z,47.55
2018-04-16T17:32:50.557Z,46.46
2018-04-16T17:35:18.938Z,46.27
2018-04-16T17:37:47.413Z,45.51
2018-04-16T17:40:15.824Z,46.63
2018-04-16T17:42:44.217Z,46.75
2018-04-16T17:45:12.685Z,45.97
2018-04-16T17:47:41.073Z,45.75
2018-04-16T17:50:09.473Z,46.05
2018-04-16T17:52:37.876Z,46.12
2018-04-16T17:55:07.086Z,47.23
2018-04-16T17:57:35.422Z,47.08
2018-04-16T18:00:03.830Z,47.86
2018-04-16T18:02:32.971Z,49.38
2018-04-16T18:05:01.358Z,50.82
2018-04-16T18:07:29.755Z,52.20
2018-04-16T18:09:58.162Z,52.90
2018-04-16T18:12:26.598Z,52.59
2018-04-16T18:14:55.041Z,51.62
2018-04-16T18:17:23.421Z,51.43
2018-04-16T18:19:51.817Z,50.65
2018-04-16T18:22:20.971Z,52.96
2018-04-16T18:24:49.389Z,53.32
2018-04-16T18:27:17.787Z,54.28
2018-04-16T18:29:46.219Z,54.08
2018-04-16T18:32:14.639Z,54.14
2018-04-16T18:34:43.006Z,54.56
2018-04-16T18:37:11.398Z,56.18
2018-04-16T18:39:39.783Z,56.68
2018-04-16T18:42:08.183Z,57.18
2018-04-16T18:44:37.359Z,57.75
2018-04-16T18:47:05.791Z,58.04
2018-04-16T18:49:34.962Z,58.00
2018-04-16T18:52:03.367Z,57.72
2018-04-16T18:54:31.969Z,57.73
2018-04-16T18:57:00.623Z,58.90
2018-04-16T18:59:29.133Z,59.76
2018-04-16T19:01:57.545Z,59.87
2018-04-16T19:04:25.963Z,60.53
2018-04-16T19:06:54.434Z,60.66
2018-04-16T19:09:22.861Z,60.62
2018-04-16T19:11:52.092Z,61.54
2018-04-16T19:14:20.511Z,60.54
2018-04-16T19:16:48.959Z,60.89
2018-04-16T19:19:17.403Z,62.31
2018-04-16T19:21:51.152Z,61.95
2018-04-16T19:24:19.533Z,62.31
2018-04-16T19:26:53.266Z,62.80
2018-04-16T19:29:21.654Z,62.49
2018-04-16T19:31:50.126Z,63.15
2018-04-16T19:34:23.792Z,63.44
2018-04-16T19:36:52.287Z,63.59
2018-04-16T19:39:20.673Z,64.16
2018-04-16T19:41:54.463Z,64.57
2018-04-16T19:44:23.650Z,64.28
2018-04-16T19:46:52.839Z,64.44
2018-04-16T19:49:26.721Z,64.87
2018-04-16T19:51:55.133Z,64.98
2018-04-16T19:54:23.519Z,65.29
2018-04-16T19:56:57.461Z,65.58
2018-04-16T19:59:25.875Z,65.57
2018-04-16T20:01:59.783Z,65.31
2018-04-16T20:04:28.243Z,65.38
2018-04-16T20:06:56.715Z,65.48
2018-04-16T20:09:25.139Z,66.13
2018-04-16T20:11:53.544Z,67.13
2018-04-16T20:14:21.963Z,67.17
2018-04-16T20:16:51.154Z,69.16
2018-04-16T20:19:20.349Z,68.71
2018-04-16T20:21:48.779Z,69.26
2018-04-16T20:24:17.157Z,69.87
2018-04-16T20:26:45.604Z,70.49
2018-04-16T20:29:14.773Z,71.22
2018-04-16T20:31:43.964Z,71.63
2018-04-16T20:34:13.140Z,72.17
2018-04-16T20:36:41.577Z,72.74
2018-04-16T20:39:09.987Z,73.65
2018-04-16T20:41:39.185Z,73.76
2018-04-16T20:44:08.392Z,74.43
2018-04-16T20:46:36.797Z,75.22
2018-04-16T20:49:05.299Z,75.69
2018-04-16T20:51:33.767Z,76.02
2018-04-16T20:54:02.348Z,76.74
2018-04-16T20:56:30.759Z,76.88
2018-04-16T20:58:59.150Z,76.60
2018-04-16T21:01:27.596Z,77.51
2018-04-16T21:03:56.001Z,77.29
2018-04-16T21:06:24.481Z,77.60
2018-04-16T21:08:52.902Z,77.98
2018-04-16T21:11:21.271Z,78.54
2018-04-16T21:13:49.670Z,78.35
2018-04-16T21:16:18.055Z,78.74
2018-04-16T21:18:46.438Z,79.22
2018-04-16T21:21:14.846Z,79.06
2018-04-16T21:23:44.040Z,79.41
2018-04-16T21:26:12.537Z,80.03
2018-04-16T21:28:40.973Z,81.11
2018-04-16T21:31:09.429Z,80.60
2018-04-16T21:33:37.819Z,80.61
2018-04-16T21:36:06.225Z,81.08
2018-04-16T21:38:34.608Z,80.63
2018-04-16T21:41:03.039Z,80.23
2018-04-16T21:43:32.224Z,80.11
2018-04-16T21:46:01.391Z,80.51
2018-04-16T21:48:29.811Z,81.31
2018-04-16T21:50:58.958Z,81.55
2018-04-16T21:53:27.354Z,81.72
2018-04-16T21:55:56.511Z,81.41
2018-04-16T21:58:24.885Z,81.24
2018-04-16T22:00:54.062Z,81.52
2018-04-16T22:03:22.447Z,81.91
2018-04-16T22:05:50.890Z,82.07
2018-04-16T22:08:19.388Z,82.77
2018-04-16T22:10:47.778Z,82.93
2018-04-16T22:13:16.169Z,83.05
2018-04-16T22:15:44.573Z,82.84
2018-04-16T22:18:13.729Z,83.45
2018-04-16T22:20:42.113Z,83.83
2018-04-16T22:23:10.500Z,84.23
2018-04-16T22:25:38.895Z,84.25
2018-04-16T22:28:07.382Z,84.83
2018-04-16T22:30:35.758Z,84.79
2018-04-16T22:33:04.134Z,85.10
2018-04-16T22:35:32.500Z,85.31
2018-04-16T22:38:01.012Z,85.64
2018-04-16T22:40:29.414Z,85.95
2018-04-16T22:42:57.812Z,86.04
2018-04-16T22:45:28.022Z,86.05
2018-04-16T22:47:57.217Z,86.16
2018-04-16T22:50:25.601Z,86.41
2018-04-16T22:52:54.022Z,86.79
2018-04-16T22:55:23.162Z,86.65
2018-04-16T22:57:51.557Z,86.63
2018-04-16T23:00:19.981Z,87.06
2018-04-16T23:02:49.119Z,87.18
2018-04-16T23:05:17.511Z,87.15
2018-04-16T23:07:45.897Z,87.14
2018-04-16T23:10:14.278Z,87.16
2018-04-16T23:12:42.646Z,87.35
2018-04-16T23:15:11.052Z,87.60
2018-04-16T23:17:39.448Z,87.92
2018-04-16T23:20:08.862Z,88.09
2018-04-16T23:22:37.264Z,88.29
2018-04-16T23:25:06.410Z,88.16
2018-04-16T23:27:34.809Z,88.34
2018-04-16T23:30:03.226Z,88.52
2018-04-16T23:32:31.622Z,88.47
2018-04-16T23:35:00.782Z,88.49
2018-04-16T23:37:29.157Z,88.67
2018-04-16T23:39:57.525Z,88.69
2018-04-16T23:42:25.902Z,88.70
2018-04-16T23:44:54.282Z,88.74
2018-04-16T23:47:22.650Z,88.77
2018-04-16T23:49:51.151Z,89.12
2018-04-16T23:52:19.542Z,88.97
2018-04-16T23:54:47.933Z,89.49
2018-04-16T23:57:16.323Z,89.42
2018-04-16T23:59:44.726Z,89.64
